createdAt,value
2022-11-12T00:00:59.231Z,95352.34
2022-11-12T00:03:26.756Z,95347.78
2022-11-12T00:05:53.420Z,95341.41
2022-11-12T00:08:19.970Z,95316.47
2022-11-12T00:10:46.744Z,95317.75
2022-11-12T00:13:13.773Z,95304.47
2022-11-12T00:15:41.618Z,95320.38
2022-11-12T00:18:10.179Z,95312.97
2022-11-12T00:20:36.684Z,95330.03
2022-11-12T00:23:03.115Z,95326.75
2022-11-12T00:25:30.327Z,95310.94
2022-11-12T00:28:08.143Z,95308.22
2022-11-12T00:30:37.188Z,95317.63
2022-11-12T00:33:04.593Z,95299.88
2022-11-12T00:35:32.924Z,95307.53
2022-11-12T00:38:00.615Z,95308.94
2022-11-12T00:40:27.242Z,95329.84
2022-11-12T00:42:54.121Z,95320.91
2022-11-12T00:45:21.464Z,95321.72
2022-11-12T00:47:47.869Z,95291.72
2022-11-12T00:50:15.969Z,95297.47
2022-11-12T00:52:42.854Z,95290.50
2022-11-12T00:55:09.275Z,95312.09
2022-11-12T00:57:35.717Z,95292.16
2022-11-12T01:00:03.349Z,95318.91
2022-11-12T01:02:29.792Z,95294.44
2022-11-12T01:04:56.509Z,95287.44
2022-11-12T01:07:23.066Z,95300.00
2022-11-12T01:09:49.525Z,95307.44
2022-11-12T01:12:15.940Z,95311.94
2022-11-12T01:14:42.378Z,95278.59
2022-11-12T01:17:08.843Z,95290.44
2022-11-12T01:19:35.385Z,95292.59
2022-11-12T01:22:01.810Z,95305.56
2022-11-12T01:24:28.332Z,95319.72
2022-11-12T01:26:54.735Z,95309.13
2022-11-12T01:29:21.161Z,95299.38
2022-11-12T01:31:47.588Z,95303.06
2022-11-12T01:34:14.027Z,95335.78
2022-11-12T01:36:42.893Z,95307.22
2022-11-12T01:39:09.733Z,95338.00
2022-11-12T01:41:38.634Z,95287.94
2022-11-12T01:44:23.420Z,95312.97
2022-11-12T01:47:14.172Z,95321.41
2022-11-12T01:49:56.841Z,95320.59
2022-11-12T01:52:28.585Z,95325.34
2022-11-12T01:55:01.244Z,95310.31
2022-11-12T01:57:35.037Z,95313.59
2022-11-12T02:00:06.768Z,95314.03
2022-11-12T02:02:35.800Z,95300.63
2022-11-12T02:05:04.602Z,95303.22
2022-11-12T02:07:32.419Z,95277.81
2022-11-12T02:10:02.018Z,95253.09
2022-11-12T02:12:47.441Z,95276.38
2022-11-12T02:15:14.140Z,95278.03
2022-11-12T02:17:40.550Z,95279.63
2022-11-12T02:20:10.978Z,95288.09
2022-11-12T02:22:37.409Z,95286.25
2022-11-12T02:25:04.517Z,95309.72
2022-11-12T02:27:31.036Z,95294.28
2022-11-12T02:29:57.525Z,95312.78
2022-11-12T02:32:23.973Z,95288.31
2022-11-12T02:34:50.390Z,95283.97
2022-11-12T02:37:16.789Z,95294.25
2022-11-12T02:39:43.285Z,95286.44
2022-11-12T02:42:09.674Z,95291.38
2022-11-12T02:44:36.369Z,95306.00
2022-11-12T02:47:02.766Z,95313.19
2022-11-12T02:49:29.225Z,95291.56
2022-11-12T02:51:55.671Z,95289.50
2022-11-12T02:54:22.096Z,95302.28
2022-11-12T02:56:48.495Z,95280.69
2022-11-12T02:59:14.947Z,95304.56
2022-11-12T03:01:41.413Z,95289.53
2022-11-12T03:04:07.969Z,95299.81
2022-11-12T03:06:34.437Z,95263.00
2022-11-12T03:09:00.955Z,95277.81
2022-11-12T03:11:27.630Z,95290.78
2022-11-12T03:13:54.089Z,95298.78
2022-11-12T03:16:20.482Z,95294.06
2022-11-12T03:18:46.929Z,95292.00
2022-11-12T03:21:13.342Z,95308.47
2022-11-12T03:23:39.779Z,95278.63
2022-11-12T03:26:06.425Z,95285.44
2022-11-12T03:28:32.880Z,95283.97
2022-11-12T03:31:00.485Z,95316.19
2022-11-12T03:33:26.931Z,95305.78
2022-11-12T03:35:53.382Z,95288.16
2022-11-12T03:38:19.857Z,95284.59
2022-11-12T03:40:46.295Z,95302.28
2022-11-12T03:43:12.705Z,95259.50
2022-11-12T03:45:39.252Z,95277.06
2022-11-12T03:48:05.894Z,95276.97
2022-11-12T03:50:32.344Z,95272.88
2022-11-12T03:52:59.914Z,95301.69
2022-11-12T03:55:28.308Z,95304.75
2022-11-12T03:57:55.543Z,95301.03
2022-11-12T04:00:23.816Z,95305.06
2022-11-12T04:02:50.756Z,95296.31
2022-11-12T04:05:36.390Z,95292.09
2022-11-12T04:08:36.775Z,95269.75
2022-11-12T04:11:07.586Z,95267.28
2022-11-12T04:13:34.599Z,95286.75
2022-11-12T04:16:27.305Z,95287.66
2022-11-12T04:19:15.253Z,95290.53
2022-11-12T04:21:52.185Z,95285.59
2022-11-12T04:24:37.211Z,95285.59
2022-11-12T04:27:04.513Z,95288.28
2022-11-12T04:29:49.945Z,95263.78
2022-11-12T04:32:16.716Z,95262.75
2022-11-12T04:34:43.705Z,95272.22
2022-11-12T04:37:10.421Z,95256.28
2022-11-12T04:39:36.882Z,95281.91
2022-11-12T04:42:22.411Z,95284.75
2022-11-12T04:45:04.774Z,95276.13
2022-11-12T04:47:39.455Z,95279.22
2022-11-12T04:50:09.359Z,95295.44
2022-11-12T04:52:35.799Z,95270.97
2022-11-12T04:55:02.354Z,95286.72
2022-11-12T04:57:28.864Z,95269.53
2022-11-12T04:59:55.355Z,95281.47
2022-11-12T05:02:22.020Z,95290.53
2022-11-12T05:04:48.549Z,95304.13
2022-11-12T05:07:15.774Z,95319.34
2022-11-12T05:09:42.350Z,95277.16
2022-11-12T05:12:09.122Z,95289.72
2022-11-12T05:14:35.657Z,95293.00
2022-11-12T05:17:02.135Z,95287.16
2022-11-12T05:19:28.617Z,95285.19
2022-11-12T05:22:08.830Z,95273.25
2022-11-12T05:24:42.561Z,95297.97
2022-11-12T05:27:15.728Z,95306.19
2022-11-12T05:29:42.538Z,95294.47
2022-11-12T05:32:11.758Z,95285.41
2022-11-12T05:34:38.174Z,95302.28
2022-11-12T05:37:06.459Z,95303.81
2022-11-12T05:39:32.932Z,95280.88
2022-11-12T05:42:12.886Z,95287.66
2022-11-12T05:44:40.110Z,95300.63
2022-11-12T05:47:06.549Z,95306.81
2022-11-12T05:49:32.990Z,95290.53
2022-11-12T05:51:59.454Z,95305.56
2022-11-12T05:54:25.970Z,95312.16
2022-11-12T05:56:55.814Z,95286.53
2022-11-12T05:59:22.467Z,95294.06
2022-11-12T06:01:49.099Z,95277.38
2022-11-12T06:04:16.788Z,95310.50
2022-11-12T06:06:44.638Z,95281.09
2022-11-12T06:09:11.376Z,95286.13
2022-11-12T06:11:37.930Z,95282.00
2022-11-12T06:14:05.202Z,95304.13
2022-11-12T06:16:32.502Z,95280.88
2022-11-12T06:18:59.085Z,95281.69
2022-11-12T06:21:27.603Z,95273.06
2022-11-12T06:23:59.277Z,95289.53
2022-11-12T06:26:28.220Z,95300.13
2022-11-12T06:28:55.070Z,95258.47
2022-11-12T06:31:22.091Z,95275.34
2022-11-12T06:33:48.902Z,95300.00
2022-11-12T06:36:18.136Z,95304.56
2022-11-12T06:38:45.415Z,95287.88
2022-11-12T06:41:15.380Z,95276.56
2022-11-12T06:43:42.214Z,95280.06
2022-11-12T06:46:12.838Z,95293.66
2022-11-12T06:48:39.521Z,95272.66
2022-11-12T06:51:21.721Z,95288.91
2022-11-12T06:53:49.340Z,95299.09
2022-11-12T06:56:16.161Z,95300.44
2022-11-12T06:58:57.106Z,95284.66
2022-11-12T07:01:23.857Z,95290.31
2022-11-12T07:03:54.249Z,95293.22
2022-11-12T07:06:21.007Z,95255.16
2022-11-12T07:08:49.032Z,95272.63
2022-11-12T07:11:16.860Z,95282.72
2022-11-12T07:13:47.024Z,95266.47
2022-11-12T07:16:18.297Z,95294.66
2022-11-12T07:18:48.463Z,95280.44
2022-11-12T07:21:20.785Z,95292.59
2022-11-12T07:23:47.622Z,95275.09
2022-11-12T07:26:18.714Z,95297.31
2022-11-12T07:28:46.460Z,95290.28
2022-11-12T07:31:14.984Z,95300.09
2022-11-12T07:33:41.961Z,95281.06
2022-11-12T07:36:10.673Z,95267.25
2022-11-12T07:38:39.071Z,95270.09
2022-11-12T07:41:06.882Z,95283.06
2022-11-12T07:43:34.911Z,95270.66
2022-11-12T07:46:10.061Z,95294.47
2022-11-12T07:48:37.734Z,95274.53
2022-11-12T07:51:15.765Z,95278.16
2022-11-12T07:53:43.685Z,95295.09
2022-11-12T07:56:15.928Z,95273.75
2022-11-12T07:58:42.415Z,95278.25
2022-11-12T08:01:33.716Z,95293.94
2022-11-12T08:04:02.018Z,95276.94
2022-11-12T08:06:29.679Z,95297.44
2022-11-12T08:08:57.751Z,95298.91
2022-11-12T08:11:24.529Z,95297.75
2022-11-12T08:13:51.451Z,95278.06
2022-11-12T08:16:18.471Z,95305.53
2022-11-12T08:18:45.842Z,95287.97
2022-11-12T08:21:15.641Z,95288.34
2022-11-12T08:23:42.702Z,95309.84
2022-11-12T08:26:12.623Z,95270.66
2022-11-12T08:28:39.869Z,95273.25
2022-11-12T08:31:12.438Z,95286.75
2022-11-12T08:33:39.708Z,95305.88
2022-11-12T08:36:08.577Z,95308.47
2022-11-12T08:38:35.911Z,95303.50
2022-11-12T08:41:04.813Z,95307.28
2022-11-12T08:43:31.352Z,95294.22
2022-11-12T08:46:00.051Z,95300.88
2022-11-12T08:48:28.231Z,95307.69
2022-11-12T08:50:55.503Z,95298.25
2022-11-12T08:53:23.964Z,95304.72
2022-11-12T08:55:54.805Z,95299.44
2022-11-12T08:58:21.683Z,95298.69
2022-11-12T09:00:50.897Z,95302.63
2022-11-12T09:03:20.183Z,95291.47
2022-11-12T09:05:47.316Z,95295.13
2022-11-12T09:08:17.568Z,95297.09
2022-11-12T09:10:44.650Z,95296.66
2022-11-12T09:13:11.468Z,95293.44
2022-11-12T09:15:38.896Z,95268.88
2022-11-12T09:18:10.635Z,95289.09
2022-11-12T09:20:37.061Z,95265.34
2022-11-12T09:23:12.712Z,95292.16
2022-11-12T09:25:40.561Z,95264.56
2022-11-12T09:28:09.329Z,95241.91
2022-11-12T09:30:37.087Z,95262.66
2022-11-12T09:33:04.096Z,95297.38
2022-11-12T09:35:30.992Z,95289.44
2022-11-12T09:37:59.419Z,95270.28
2022-11-12T09:40:59.519Z,95278.16
2022-11-12T09:43:34.373Z,95286.59
2022-11-12T09:46:27.724Z,95274.28
2022-11-12T09:49:20.837Z,95267.34
2022-11-12T09:51:53.877Z,95292.44
2022-11-12T09:54:32.719Z,95268.44
2022-11-12T09:56:59.446Z,95261.38
2022-11-12T09:59:42.313Z,95263.88
2022-11-12T10:02:29.314Z,95254.88
2022-11-12T10:05:11.016Z,95256.91
2022-11-12T10:07:51.459Z,95247.69
2022-11-12T10:11:02.611Z,95267.47
2022-11-12T10:13:37.965Z,95261.09
2022-11-12T10:16:44.052Z,95266.66
2022-11-12T10:19:10.427Z,95263.16
2022-11-12T10:21:45.883Z,95257.88
2022-11-12T10:24:12.739Z,95226.09
2022-11-12T10:26:40.123Z,95246.50
2022-11-12T10:29:42.976Z,95248.44
2022-11-12T10:32:14.722Z,95241.03
2022-11-12T10:34:51.286Z,95218.56
2022-11-12T10:37:27.736Z,95217.78
2022-11-12T10:39:54.554Z,95227.78
2022-11-12T10:42:22.782Z,95213.78
2022-11-12T10:44:49.965Z,95220.66
2022-11-12T10:47:27.976Z,95217.41
2022-11-12T10:50:04.203Z,95206.59
2022-11-12T10:52:30.761Z,95201.06
2022-11-12T10:55:17.936Z,95199.75
2022-11-12T10:58:10.260Z,95213.44
2022-11-12T11:00:51.135Z,95192.25
2022-11-12T11:03:22.074Z,95218.03
2022-11-12T11:06:18.333Z,95213.06
2022-11-12T11:08:50.505Z,95201.81
2022-11-12T11:11:16.860Z,95207.50
2022-11-12T11:13:44.415Z,95202.09
2022-11-12T11:16:14.806Z,95173.03
2022-11-12T11:19:05.438Z,95200.28
2022-11-12T11:22:10.397Z,95204.16
2022-11-12T11:25:21.885Z,95193.69
2022-11-12T11:28:19.359Z,95196.31
2022-11-12T11:31:06.802Z,95196.31
2022-11-12T11:33:53.236Z,95188.09
2022-11-12T11:36:28.569Z,95187.88
2022-11-12T11:39:19.899Z,95171.28
2022-11-12T11:42:01.591Z,95181.19
2022-11-12T11:45:02.747Z,95159.03
2022-11-12T11:48:02.002Z,95168.31
2022-11-12T11:50:35.768Z,95151.91
2022-11-12T11:53:19.438Z,95165.22
2022-11-12T11:55:50.672Z,95137.31
2022-11-12T11:58:39.016Z,95153.75
2022-11-12T12:01:11.511Z,95158.78
2022-11-12T12:03:53.197Z,95149.72
2022-11-12T12:06:30.395Z,95139.22
2022-11-12T12:09:26.063Z,95143.00
2022-11-12T12:12:09.876Z,95126.03
2022-11-12T12:15:08.752Z,95132.75
2022-11-12T12:18:12.431Z,95139.25
2022-11-12T12:20:56.434Z,95131.09
2022-11-12T12:23:35.408Z,95128.22
2022-11-12T12:26:07.820Z,95108.31
2022-11-12T12:28:45.322Z,95121.34
2022-11-12T12:31:18.268Z,95127.66
2022-11-12T12:33:53.038Z,95101.91
2022-11-12T12:36:29.332Z,95094.38
2022-11-12T12:39:11.267Z,95104.16
2022-11-12T12:41:55.329Z,95083.53
2022-11-12T12:44:42.040Z,95095.22
2022-11-12T12:47:11.999Z,95098.53
2022-11-12T12:49:39.580Z,95078.28
2022-11-12T12:52:07.061Z,95055.13
2022-11-12T12:54:51.872Z,95095.66
2022-11-12T12:57:41.103Z,95087.06
2022-11-12T13:00:33.446Z,95102.53
2022-11-12T13:03:00.088Z,95068.88
2022-11-12T13:05:40.359Z,95096.53
2022-11-12T13:08:18.733Z,95089.22
2022-11-12T13:10:53.107Z,95078.59
2022-11-12T13:13:19.558Z,95092.38
2022-11-12T13:15:49.973Z,95087.97
2022-11-12T13:18:38.185Z,95087.38
2022-11-12T13:21:13.723Z,95081.69
2022-11-12T13:24:08.243Z,95071.72
2022-11-12T13:26:58.158Z,95082.34
2022-11-12T13:29:46.058Z,95088.63
2022-11-12T13:32:30.990Z,95078.13
2022-11-12T13:35:23.645Z,95083.06
2022-11-12T13:38:11.938Z,95065.13
2022-11-12T13:41:04.111Z,95062.38
2022-11-12T13:43:32.981Z,95079.25
2022-11-12T13:46:11.016Z,95085.00
2022-11-12T13:48:52.530Z,95079.13
2022-11-12T13:51:34.339Z,95079.00
2022-11-12T13:54:01.787Z,95048.84
2022-11-12T13:56:29.845Z,95076.00
2022-11-12T13:59:08.822Z,95078.56
2022-11-12T14:01:35.315Z,95065.13
2022-11-12T14:04:01.742Z,95074.50
2022-11-12T14:06:34.294Z,95087.88
2022-11-12T14:09:35.125Z,95089.97
2022-11-12T14:12:21.427Z,95079.09
2022-11-12T14:14:59.972Z,95078.75
2022-11-12T14:17:51.424Z,95071.59
2022-11-12T14:20:38.659Z,95070.06
2022-11-12T14:23:20.111Z,95083.09
2022-11-12T14:25:57.038Z,95078.25
2022-11-12T14:28:31.770Z,95076.09
2022-11-12T14:31:00.095Z,95054.66
2022-11-12T14:33:28.278Z,95066.81
2022-11-12T14:36:00.936Z,95045.78
2022-11-12T14:38:37.205Z,95073.41
2022-11-12T14:41:09.141Z,95062.84
2022-11-12T14:43:47.690Z,95068.06
2022-11-12T14:46:26.937Z,95044.13
2022-11-12T14:49:04.465Z,95051.16
2022-11-12T14:51:44.056Z,95026.50
2022-11-12T14:54:30.676Z,95024.69
2022-11-12T14:56:59.780Z,95033.53
2022-11-12T14:59:26.335Z,95015.09
2022-11-12T15:04:54.712Z,95036.13
2022-11-12T15:07:50.190Z,95010.72
2022-11-12T15:10:42.716Z,95045.31
2022-11-12T15:13:21.851Z,95029.50
2022-11-12T15:15:54.326Z,95041.19
2022-11-12T15:18:24.766Z,95039.31
2022-11-12T15:21:23.131Z,95037.81
2022-11-12T15:23:57.934Z,95007.31
2022-11-12T15:26:43.477Z,95031.50
2022-11-12T15:29:15.354Z,95045.50
2022-11-12T15:31:44.541Z,95045.84
2022-11-12T15:34:27.773Z,95027.66
2022-11-12T15:37:01.728Z,95010.81
2022-11-12T15:39:29.446Z,95009.63
2022-11-12T15:42:16.073Z,95027.53
2022-11-12T15:44:42.812Z,95010.47
2022-11-12T15:47:28.066Z,94998.44
2022-11-12T15:49:56.979Z,94997.13
2022-11-12T15:52:23.441Z,95018.94
2022-11-12T15:54:49.919Z,95010.09
2022-11-12T15:57:28.926Z,94988.91
2022-11-12T16:00:07.881Z,94995.59
2022-11-12T16:02:35.144Z,94990.47
2022-11-12T16:05:01.672Z,94973.81
2022-11-12T16:07:28.089Z,94989.13
2022-11-12T16:10:00.921Z,94986.81
2022-11-12T16:12:27.695Z,94994.59
2022-11-12T16:14:56.302Z,95008.56
2022-11-12T16:17:22.823Z,95001.03
2022-11-12T16:19:49.227Z,94999.31
2022-11-12T16:22:15.647Z,94988.81
2022-11-12T16:24:42.654Z,95005.72
2022-11-12T16:27:14.594Z,95025.88
2022-11-12T16:29:44.155Z,95010.75
2022-11-12T16:32:14.104Z,94998.94
2022-11-12T16:35:01.586Z,95027.53
2022-11-12T16:37:28.137Z,94996.38
2022-11-12T16:39:54.557Z,94978.50
2022-11-12T16:42:20.982Z,95015.06
2022-11-12T16:44:47.483Z,95024.41
2022-11-12T16:47:14.178Z,95020.34
2022-11-12T16:49:42.826Z,95026.13
2022-11-12T16:52:10.271Z,94956.16
2022-11-12T16:54:36.678Z,95004.13
2022-11-12T16:57:03.819Z,94988.38
2022-11-12T16:59:38.342Z,94994.97
2022-11-12T17:02:04.881Z,95007.56
2022-11-12T17:04:31.304Z,95010.00
2022-11-12T17:06:57.736Z,94999.13
2022-11-12T17:09:24.207Z,95006.25
2022-11-12T17:11:50.658Z,95022.38
2022-11-12T17:14:18.379Z,94984.78
2022-11-12T17:16:45.211Z,95012.03
2022-11-12T17:19:11.703Z,95009.78
2022-11-12T17:21:43.144Z,94982.53
2022-11-12T17:24:09.701Z,94993.91
2022-11-12T17:26:36.105Z,95002.50
2022-11-12T17:29:07.864Z,94985.63
2022-11-12T17:31:35.746Z,95000.63
2022-11-12T17:34:05.284Z,94997.75
2022-11-12T17:36:54.701Z,95013.97
2022-11-12T17:39:21.148Z,95014.25
2022-11-12T17:41:47.628Z,94986.47
2022-11-12T17:44:18.978Z,94991.22
2022-11-12T17:46:46.423Z,95001.03
2022-11-12T17:49:14.179Z,95001.44
2022-11-12T17:51:40.841Z,94974.22
2022-11-12T17:54:10.777Z,94974.75
2022-11-12T17:56:37.374Z,94946.41
2022-11-12T17:59:04.320Z,94988.09
2022-11-12T18:01:32.410Z,94987.53
2022-11-12T18:03:59.240Z,94960.22
2022-11-12T18:06:28.853Z,94977.91
2022-11-12T18:09:00.654Z,94977.75
2022-11-12T18:11:28.887Z,94943.25
2022-11-12T18:13:55.783Z,94945.47
2022-11-12T18:16:26.033Z,94977.56
2022-11-12T18:18:57.078Z,94975.06
2022-11-12T18:21:25.564Z,94944.81
2022-11-12T18:23:52.246Z,94954.41
2022-11-12T18:26:19.660Z,94957.91
2022-11-12T18:28:57.178Z,94941.31
2022-11-12T18:31:25.022Z,94963.25
2022-11-12T18:33:52.538Z,94964.59
2022-11-12T18:36:37.162Z,94964.69
2022-11-12T18:39:04.967Z,94967.78
2022-11-12T18:41:32.926Z,94948.50
2022-11-12T18:44:00.706Z,94951.75
2022-11-12T18:46:27.142Z,94942.81
2022-11-12T18:48:53.539Z,94942.84
2022-11-12T18:51:20.267Z,94959.97
2022-11-12T18:53:47.189Z,94960.56
2022-11-12T18:56:16.762Z,94957.00
2022-11-12T18:58:43.777Z,94957.97
2022-11-12T19:01:16.584Z,94955.59
2022-11-12T19:03:43.968Z,94953.63
2022-11-12T19:06:14.280Z,94928.88
2022-11-12T19:08:41.391Z,94911.88
2022-11-12T19:11:11.802Z,94925.63
2022-11-12T19:13:38.718Z,94945.72
2022-11-12T19:16:07.571Z,94947.38
2022-11-12T19:18:34.541Z,94903.25
2022-11-12T19:21:07.478Z,94946.56
2022-11-12T19:23:34.308Z,94946.84
2022-11-12T19:26:04.297Z,94944.66
2022-11-12T19:28:31.361Z,94941.03
2022-11-12T19:30:58.221Z,94963.00
2022-11-12T19:33:24.626Z,94935.38
2022-11-12T19:35:52.134Z,94941.31
2022-11-12T19:38:18.536Z,94931.56
2022-11-12T19:40:45.749Z,94934.00
2022-11-12T19:43:12.219Z,94941.38
2022-11-12T19:45:38.736Z,94940.56
2022-11-12T19:48:05.487Z,94933.72
2022-11-12T19:50:33.333Z,94928.09
2022-11-12T19:52:59.767Z,94919.38
2022-11-12T19:55:39.610Z,94933.78
2022-11-12T19:58:07.021Z,94940.75
2022-11-12T20:00:33.758Z,94911.94
2022-11-12T20:03:00.462Z,94910.31
2022-11-12T20:05:37.186Z,94928.31
2022-11-12T20:08:03.714Z,94910.56
2022-11-12T20:10:30.154Z,94931.31
2022-11-12T20:12:56.544Z,94890.59
2022-11-12T20:15:22.973Z,94926.19
2022-11-12T20:17:49.394Z,94902.13
2022-11-12T20:20:15.846Z,94871.06
2022-11-12T20:22:42.269Z,94904.44
2022-11-12T20:25:09.081Z,94915.75
2022-11-12T20:27:35.555Z,94907.91
2022-11-12T20:30:02.045Z,94925.34
2022-11-12T20:32:28.486Z,94908.72
2022-11-12T20:35:00.033Z,94904.59
2022-11-12T20:37:26.467Z,94876.81
2022-11-12T20:39:52.983Z,94892.91
2022-11-12T20:42:19.594Z,94899.41
2022-11-12T20:44:46.090Z,94892.06
2022-11-12T20:47:12.861Z,94902.16
2022-11-12T20:49:39.295Z,94871.00
2022-11-12T20:52:05.757Z,94869.25
2022-11-12T20:54:34.299Z,94860.25
2022-11-12T20:57:03.017Z,94849.56
2022-11-12T20:59:29.459Z,94803.56
2022-11-12T21:01:58.786Z,94881.66
2022-11-12T21:04:25.197Z,94869.72
2022-11-12T21:07:01.058Z,94848.28
2022-11-12T21:09:31.382Z,94850.44
2022-11-12T21:11:57.817Z,94857.53
2022-11-12T21:14:24.225Z,94849.28
2022-11-12T21:16:50.731Z,94875.63
2022-11-12T21:19:19.253Z,94862.69
2022-11-12T21:21:45.746Z,94866.22
2022-11-12T21:24:13.435Z,94838.31
2022-11-12T21:26:39.991Z,94827.25
2022-11-12T21:29:07.123Z,94853.66
2022-11-12T21:31:33.582Z,94842.53
2022-11-12T21:34:04.325Z,94851.19
2022-11-12T21:36:32.270Z,94842.50
2022-11-12T21:38:58.738Z,94829.44
2022-11-12T21:41:27.924Z,94815.81
2022-11-12T21:43:55.067Z,94823.13
2022-11-12T21:46:24.029Z,94819.06
2022-11-12T21:48:55.312Z,94799.91
2022-11-12T21:51:24.552Z,94819.34
2022-11-12T21:53:56.146Z,94813.56
2022-11-12T21:56:23.377Z,94776.88
2022-11-12T21:58:49.865Z,94775.78
2022-11-12T22:01:22.579Z,94793.41
2022-11-12T22:03:50.084Z,94800.00
2022-11-12T22:06:17.162Z,94815.19
2022-11-12T22:08:44.113Z,94816.63
2022-11-12T22:11:13.259Z,94798.38
2022-11-12T22:13:40.874Z,94811.44
2022-11-12T22:16:08.089Z,94791.78
2022-11-12T22:18:35.078Z,94812.22
2022-11-12T22:21:04.701Z,94828.25
2022-11-12T22:23:37.703Z,94801.69
2022-11-12T22:26:06.123Z,94824.31
2022-11-12T22:28:34.407Z,94828.09
2022-11-12T22:31:10.368Z,94821.00
2022-11-12T22:33:37.098Z,94798.38
2022-11-12T22:36:08.883Z,94814.97
2022-11-12T22:38:37.515Z,94783.34
2022-11-12T22:41:06.216Z,94780.25
2022-11-12T22:43:32.978Z,94798.41
2022-11-12T22:46:06.282Z,94802.22
2022-11-12T22:48:33.258Z,94780.34
2022-11-12T22:51:01.516Z,94781.56
2022-11-12T22:53:28.634Z,94783.19
2022-11-12T22:55:55.335Z,94798.69
2022-11-12T22:58:22.209Z,94784.84
2022-11-12T23:00:48.653Z,94769.31
2022-11-12T23:03:15.328Z,94753.47
2022-11-12T23:05:42.520Z,94736.94
2022-11-12T23:08:09.049Z,94769.19
2022-11-12T23:10:35.514Z,94777.50
2022-11-12T23:13:01.954Z,94770.81
2022-11-12T23:15:31.344Z,94748.66
2022-11-12T23:17:57.760Z,94751.34
2022-11-12T23:20:24.150Z,94730.94
2022-11-12T23:22:52.660Z,94760.56
2022-11-12T23:25:19.077Z,94736.38
2022-11-12T23:27:45.499Z,94732.81
2022-11-12T23:30:12.329Z,94746.19
2022-11-12T23:32:38.761Z,94752.69
2022-11-12T23:35:05.777Z,94739.13
2022-11-12T23:37:32.260Z,94727.53
2022-11-12T23:39:58.664Z,94736.41
2022-11-12T23:42:25.113Z,94714.88
2022-11-12T23:44:51.578Z,94699.69
2022-11-12T23:47:18.011Z,94723.22
2022-11-12T23:49:44.397Z,94711.38
2022-11-12T23:52:10.892Z,94718.72
2022-11-12T23:54:37.329Z,94724.41
2022-11-12T23:57:03.920Z,94719.53
2022-11-12T23:59:30.401Z,94699.38
